Weather observations for the past three days for
Santa Ynez, Santa Ynez Airport
Imperial (Metric)
Date Time (pdt) Wind (mph) Vis. (mi.) Weather Sky Cond. Temperature (ºF) Relative Humidity Wind Chill (°F) Heat Index (°F) Pressure Precipitation (in)
Air Dwpt 6 hour altimeter (in) sea level (mb) 1 hr 3 hr 6 hr
Max. Min.
02 15:35 W 16 10.00 Fair CLR 78.8 51.8 39% 79 29.98 0.0
02 15:15 W 17 10.00 Fair CLR 80.6 51.8 37% 80 29.99 0.0
02 14:55 W 18 10.00 Fair CLR 78.8 51.8 39% 79 29.99 0.0
02 14:35 W 17 10.00 Fair CLR 80.6 51.8 37% 80 30 0.0
02 14:15 W 16 10.00 Fair CLR 80.6 50 34% 80 30 0.0
02 13:55 W 14 10.00 Fair CLR 78.8 50 37% 79 30 0.0
02 13:35 W 12 10.00 Fair CLR 78.8 50 37% 79 30.01 0.0
02 13:15 Vrbl 6 G 12 10.00 Fair CLR 78.8 48.2 34% 79 30.01 0.0
02 12:55 W 8 10.00 Fair CLR 77 48.2 36% 78 30.02 0.0
02 12:35 W 8 10.00 Fair CLR 77 48.2 36% 78 30.03 0.0
02 12:15 Vrbl 7 10.00 Fair CLR 75.2 50 41% 78 30.04 0.0
02 11:55 Vrbl 5 G 12 10.00 Fair CLR 73.4 51.8 47% 30.04 0.0
02 11:35 W 3 10.00 Fair CLR 71.6 50 47% 30.05 0.0
02 11:15 Vrbl 5 10.00 Fair CLR 69.8 50 50% 30.05 0.0
02 10:55 Vrbl 5 10.00 Fair CLR 68 50 53% 30.06 0.0
02 10:35 Vrbl 5 10.00 Fair CLR 66.2 51.8 60% 30.05 0.0
02 10:15 Vrbl 5 10.00 Fair CLR 66.2 51.8 60% 30.05 0.0
02 09:55 W 5 10.00 Fair CLR 62.6 50 64% 30.05 0.0
02 09:35 Vrbl 3 10.00 Fair CLR 60.8 51.8 72% 30.05 0.0
02 09:15 S 3 10.00 Fair CLR 60.8 51.8 72% 30.05 0.0
02 08:55 Calm 10.00 Fair CLR 59 51.8 77% 30.06 0.0
02 08:35 E 5 10.00 Fair CLR 57.2 51.8 82% 30.05 0.0
02 08:15 E 7 10.00 Fair CLR 55.4 51.8 88% 30.05 0.0
02 07:55 E 6 10.00 Fair CLR 53.6 51.8 94% 30.05 0.0
02 07:35 Calm 10.00 Fair CLR 50 48.2 94% 30.06 0.0
02 07:15 Calm 9.00 Fair CLR 48.2 46.4 94% 30.05 0.0
02 06:55 NE 3 10.00 Fair CLR 48.2 46.4 94% 30.05 0.0
02 06:35 Calm 10.00 A Few Clouds FEW010 48.2 48.2 100% 30.06 0.0
02 06:15 Calm 9.00 Mostly Cloudy BKN011 46.4 46.4 100% 30.05 0.0
02 05:55 Calm 10.00 A Few Clouds FEW011 48.2 48.2 100% 30.05 0.0
02 05:35 Calm 10.00 A Few Clouds FEW011 FEW023 50 48.2 94% 30.04 0.0
02 05:15 Calm 10.00 Overcast OVC011 50 48.2 94% 30.04 0.0
02 04:55 Calm 10.00 Mostly Cloudy SCT011 BKN020 50 48.2 94% 30.03 0.0
02 04:35 Calm 10.00 Partly Cloudy FEW020 SCT028 50 48.2 94% 30.03 0.0
02 04:15 Calm 10.00 A Few Clouds FEW023 FEW030 48.2 48.2 100% 30.03 0.0
02 03:55 Calm 10.00 Fair CLR 50 50 100% 30.03 0.0
02 03:35 Calm 9.00 Fair CLR 48.2 48.2 100% 30.03 0.0
02 03:15 Calm 10.00 Fair CLR 50 50 100% 30.04 0.0
02 02:55 N 5 10.00 Fair CLR 50 50 100% 49 30.04 0.0
02 02:35 N 3 10.00 Fair CLR 51.8 50 94% 30.03 0.0
02 02:15 Calm 10.00 Fair CLR 51.8 50 94% 30.03 0.0
02 01:55 N 3 10.00 Fair CLR 51.8 50 94% 30.04 0.0
02 01:35 Calm 10.00 Fair CLR 51.8 51.8 100% 30.03 0.0
02 01:15 SE 3 10.00 Fair CLR 51.8 51.8 100% 30.04 0.0
02 00:55 Calm 10.00 Fair CLR 53.6 51.8 94% 30.04 0.0
02 00:35 NE 3 10.00 Fair CLR 53.6 51.8 94% 30.04 0.0
02 00:15 NE 3 10.00 Fair CLR 55.4 51.8 88% 30.03 0.0
01 23:55 Calm 10.00 Fair CLR 57.2 53.6 88% 30.04 0.0
01 23:35 NW 3 10.00 Partly Cloudy SCT014 57.2 53.6 88% 30.04 0.0
01 23:15 Calm 10.00 Overcast OVC014 57.2 53.6 88% 30.04 0.0
01 22:55 Calm 10.00 Overcast OVC014 59 55.4 88% 30.04 0.0
01 22:35 Vrbl 5 10.00 Overcast OVC013 59 55.4 88% 30.04 0.0
01 22:15 Calm 10.00 Overcast OVC013 59 55.4 88% 30.04 0.0
01 21:55 Calm 10.00 Overcast OVC015 59 53.6 82% 30.04 0.0
01 21:35 Calm 10.00 Mostly Cloudy SCT017 BKN024 BKN030 59 53.6 82% 30.03 0.0
01 21:15 Calm 10.00 Partly Cloudy SCT024 SCT030 57.2 51.8 82% 30.03 0.0
01 20:55 W 5 10.00 Partly Cloudy SCT031 59 51.8 77% 30.02 0.0
01 20:35 W 5 10.00 Partly Cloudy SCT032 59 51.8 77% 30.02 0.0
01 20:15 W 5 10.00 Mostly Cloudy BKN033 60.8 50 68% 30.01 0.0
01 19:55 W 8 10.00 Fair CLR 62.6 50 64% 30.01 0.0
01 19:35 NW 10 10.00 Fair CLR 64.4 48.2 56% 30 0.0
01 19:15 NW 9 G 16 10.00 Fair CLR 64.4 48.2 56% 30 0.0
01 18:55 NW 12 10.00 Fair CLR 68 46.4 46% 29.99 0.0
01 18:35 W 10 G 17 10.00 Fair CLR 69.8 46.4 43% 29.98 0.0
01 18:15 W 10 G 16 10.00 Fair CLR 71.6 46.4 41% 29.98 0.0
01 17:55 Vrbl 7 G 14 10.00 Fair CLR 71.6 48.2 44% 29.98 0.0
01 17:35 W 12 10.00 Fair CLR 73.4 48.2 41% 29.97 0.0
01 17:15 W 15 G 21 10.00 Fair CLR 73.4 48.2 41% 29.97 0.0
01 16:55 W 14 G 20 10.00 Fair CLR 73.4 48.2 41% 29.97 0.0
01 16:35 W 15 G 22 10.00 Fair CLR 75.2 46.4 36% 77 29.97 0.0
01 16:15 W 14 G 21 10.00 Fair CLR 75.2 46.4 36% 77 29.98 0.0
01 15:55 W 13 G 20 10.00 Fair CLR 75.2 48.2 39% 77 29.98 0.0
01 15:35 W 16 10.00 Fair CLR 75.2 48.2 39% 77 29.98 0.0
01 15:15 W 14 G 21 10.00 Fair CLR 77 48.2 36% 78 29.98 0.0
01 14:55 W 17 10.00 Fair CLR 77 48.2 36% 78 29.98 0.0
01 14:35 W 15 10.00 Fair CLR 77 48.2 36% 78 29.98 0.0
01 14:15 W 14 10.00 Fair CLR 78.8 48.2 34% 79 29.98 0.0
01 13:55 W 14 10.00 Fair CLR 78.8 48.2 34% 79 29.98 0.0
01 13:35 W 8 10.00 Fair CLR 77 46.4 34% 78 29.99 0.0
01 13:15 SW 8 10.00 Fair CLR 77 48.2 36% 78 29.99 0.0
01 12:55 W 7 10.00 Fair CLR 77 50 39% 78 29.99 0.0
01 12:35 SW 6 10.00 Fair CLR 73.4 50 44% 30 0.0
01 12:15 Calm 10.00 Fair CLR 73.4 50 44% 30.01 0.0
01 11:55 SW 7 10.00 Fair CLR 71.6 50 47% 30.02 0.0
01 11:35 Vrbl 5 10.00 Fair CLR 71.6 48.2 44% 30.03 0.0
01 11:15 Vrbl 5 10.00 Fair CLR 68 50 53% 30.03 0.0
01 10:55 Vrbl 5 10.00 Fair CLR 66.2 50 56% 30.03 0.0
01 10:35 Calm 10.00 Fair CLR 66.2 50 56% 30.03 0.0
01 10:15 N 6 10.00 Fair CLR 64.4 51.8 64% 30.03 0.0
01 09:55 Calm 10.00 Fair CLR 62.6 51.8 68% 30.03 0.0
01 09:35 NE 3 10.00 Fair CLR 60.8 51.8 72% 30.03 0.0
01 09:15 Calm 10.00 Fair CLR 60.8 51.8 72% 30.03 0.0
01 08:55 Vrbl 3 10.00 A Few Clouds FEW017 59 51.8 77% 30.02 0.0
01 08:35 Calm 10.00 Mostly Cloudy BKN017 57.2 51.8 82% 30.03 0.0
01 08:15 Calm 10.00 Overcast OVC020 57.2 51.8 82% 30.03 0.0
01 07:55 SE 3 10.00 Overcast OVC021 57.2 51.8 82% 30.03 0.0
01 07:35 Calm 10.00 Overcast OVC020 55.4 51.8 88% 30.02 0.0
01 07:15 Calm 10.00 Overcast OVC021 55.4 51.8 88% 30.02 0.0
01 06:55 Calm 10.00 Overcast OVC020 55.4 51.8 88% 30.01 0.0
01 06:35 Calm 10.00 Overcast OVC019 55.4 51.8 88% 30.01 0.0
01 06:15 SE 3 10.00 Overcast OVC017 55.4 51.8 88% 30 0.0
01 05:55 SE 5 10.00 Overcast OVC017 55.4 51.8 88% 30 0.0
01 05:35 Calm 10.00 Overcast OVC016 55.4 51.8 88% 30 0.0
01 05:15 Calm 10.00 Overcast OVC014 55.4 51.8 88% 30 0.0
01 04:55 Calm 10.00 Overcast OVC012 55.4 53.6 94% 29.99 0.0
01 04:35 SE 5 9.00 Overcast OVC011 55.4 53.6 94% 29.99 0.0
01 04:15 Calm 9.00 Overcast OVC011 55.4 53.6 94% 29.99 0.0
01 03:55 Calm 9.00 Overcast OVC009 55.4 53.6 94% 30 0.0
01 03:15 Calm 10.00 Overcast OVC007 53.6 53.6 100% 30 0.0
01 02:55 Calm 10.00 Overcast OVC007 53.6 51.8 94% 30 0.0
01 02:35 Calm 10.00 Overcast OVC008 53.6 51.8 94% 29.99 0.0
01 02:15 Calm 10.00 Overcast OVC010 51.8 50 94% 29.99 0.0
01 01:55 N 5 10.00 Overcast OVC012 51.8 50 94% 29.99 0.0
01 01:35 N 6 10.00 Overcast OVC013 50 48.2 94% 48 29.99 0.0
01 01:15 N 5 10.00 Overcast OVC013 51.8 51.8 100% 29.99 0.0
01 00:55 Calm 10.00 Mostly Cloudy BKN013 BKN020 53.6 51.8 94% 29.99 0.0
01 00:35 Calm 10.00 Overcast SCT012 OVC021 53.6 51.8 94% 29.99 0.0
01 00:15 NW 5 10.00 Overcast BKN012 OVC022 53.6 51.8 94% 29.99 0.0
31 23:55 W 6 10.00 Overcast BKN012 OVC020 53.6 51.8 94% 29.99 0.0
31 23:35 Calm 10.00 Overcast FEW012 OVC020 53.6 51.8 94% 29.98 0.0
31 23:15 Calm 10.00 Overcast OVC020 53.6 51.8 94% 29.98 0.0
31 22:55 W 3 10.00 Overcast SCT013 OVC020 53.6 51.8 94% 29.98 0.0
31 22:35 Calm 10.00 Overcast BKN013 OVC020 55.4 53.6 94% 29.98 0.0
31 22:15 Calm 10.00 Overcast OVC019 55.4 51.8 88% 29.98 0.0
31 21:55 Calm 10.00 Overcast OVC020 55.4 53.6 94% 29.98 0.0
31 21:35 Calm 10.00 Overcast OVC020 55.4 53.6 94% 29.98 0.0
31 20:55 W 3 10.00 Overcast OVC022 57.2 53.6 88% 29.97 0.0
31 20:35 W 7 G 13 10.00 Mostly Cloudy BKN025 BKN030 59 53.6 82% 29.96 0.0
31 20:15 W 8 G 14 10.00 Partly Cloudy SCT026 59 53.6 82% 29.95 0.0
31 19:55 W 8 10.00 Fair CLR 60.8 53.6 77% 29.94 0.0
31 19:35 W 9 10.00 Fair CLR 62.6 53.6 73% 29.93 0.0
31 19:15 W 9 G 15 10.00 Fair CLR 64.4 53.6 68% 29.92 0.0
31 18:55 W 9 G 16 10.00 Fair CLR 66.2 51.8 60% 29.92 0.0
31 18:35 W 9 10.00 Fair CLR 68 51.8 56% 29.92 0.0
31 18:15 W 12 10.00 Fair CLR 69.8 51.8 53% 29.91 0.0
31 17:55 W 10 10.00 Fair CLR 71.6 51.8 50% 29.91 0.0
31 17:35 W 9 G 20 10.00 Fair CLR 71.6 53.6 53% 29.91 0.0
31 17:15 W 14 G 21 10.00 Fair CLR 73.4 53.6 50% 29.92 0.0
31 16:35 W 15 10.00 Fair CLR 77 53.6 44% 78 29.91 0.0
31 16:15 W 14 10.00 Fair CLR 77 53.6 44% 78 29.91 0.0
31 15:55 W 15 10.00 Fair CLR 77 53.6 44% 78 29.91 0.0
31 15:35 W 14 G 21 10.00 Fair CLR 78.8 53.6 42% 79 29.91 0.0
31 15:15 W 16 10.00 Fair CLR 78.8 53.6 42% 79 29.91 0.0
31 14:55 W 13 10.00 Fair CLR 80.6 53.6 39% 80 29.91 0.0
31 14:35 W 12 10.00 Fair CLR 80.6 55.4 42% 81 29.91 0.0
31 14:15 W 10 10.00 Fair CLR 80.6 57.2 45% 81 29.92 0.0
31 13:55 W 6 10.00 Fair CLR 78.8 57.2 48% 80 29.93 0.0
31 13:35 NW 7 10.00 Fair CLR 77 57.2 51% 79 29.93 0.0
31 13:15 Calm 10.00 Fair CLR 75.2 57.2 54% 78 29.94 0.0
31 12:55 Calm 10.00 Fair CLR 73.4 57.2 57% 29.95 0.0
31 12:35 W 5 10.00 Fair CLR 71.6 57.2 61% 29.96 0.0
31 12:15 W 5 10.00 Fair CLR 71.6 57.2 61% 29.97 0.0
31 11:55 Vrbl 6 8.00 Fair CLR 68 55.4 64% 29.98 0.0
31 11:35 Vrbl 3 10.00 Fair CLR 66.2 55.4 68% 29.98 0.0
31 11:15 Calm 10.00 Partly Cloudy SCT014 64.4 55.4 73% 29.99 0.0
31 10:55 Vrbl 3 10.00 Overcast OVC013 62.6 55.4 77% 29.99 0.0
31 10:35 Vrbl 3 10.00 Overcast OVC013 59 53.6 82% 30 0.0
31 10:15 Calm 10.00 Overcast OVC011 59 53.6 82% 29.99 0.0
31 09:55 Vrbl 5 10.00 Overcast OVC008 57.2 53.6 88% 29.98 0.0
31 09:35 NE 3 10.00 Overcast OVC007 55.4 53.6 94% 29.98 0.0
31 09:15 SE 5 6.00 Fog/Mist OVC006 55.4 53.6 94% 29.98 0.0
31 08:55 E 5 6.00 Fog/Mist OVC005 55.4 53.6 94% 29.98 0.0
31 08:35 NE 5 7.00 Overcast OVC006 55.4 55.4 100% 29.98 0.0
31 08:15 NE 5 6.00 Fog/Mist OVC005 53.6 53.6 100% 29.98 0.0
31 07:55 Calm 4.00 Fog/Mist OVC004 53.6 53.6 100% 29.97 0.0
31 07:35 NE 5 2.50 Fog/Mist OVC003 53.6 53.6 100% 29.96 0.0
31 07:15 Calm 1.75 Fog/Mist OVC003 53.6 53.6 100% 29.95 0.0
31 06:55 Vrbl 3 2.00 Fog/Mist OVC003 53.6 53.6 100% 29.95 0.0
31 06:35 NE 3 2.50 Fog/Mist OVC003 53.6 53.6 100% 29.94 0.0
31 06:15 Calm 3.00 Fog/Mist OVC003 53.6 53.6 100% 29.94 0.0
31 05:55 Calm 4.00 Fog/Mist OVC003 53.6 53.6 100% 29.94 0.0
31 05:35 Calm 4.00 Fog/Mist OVC003 53.6 53.6 100% 29.93 0.0
31 05:15 NE 5 3.00 Fog/Mist OVC004 53.6 53.6 100% 29.93 0.0
31 04:55 Calm 5.00 Fog/Mist OVC003 53.6 53.6 100% 29.93 0.0
31 04:35 NE 5 4.00 Fog/Mist OVC003 53.6 53.6 100% 29.93 0.0
31 04:15 NE 5 4.00 Fog/Mist OVC003 53.6 53.6 100% 29.93 0.0
31 03:55 NE 5 5.00 Fog/Mist OVC004 53.6 53.6 100% 29.93 0.0
31 03:35 Calm 5.00 Fog/Mist OVC004 53.6 53.6 100% 29.94 0.0
31 03:15 NE 3 7.00 Overcast OVC004 53.6 53.6 100% 29.93 0.0
31 02:55 N 3 7.00 Overcast OVC004 53.6 53.6 100% 29.93 0.0
31 02:35 Calm 8.00 Overcast OVC004 53.6 53.6 100% 29.93 0.0
31 02:15 N 5 6.00 Fog/Mist OVC004 53.6 53.6 100% 29.94 0.0
31 01:55 N 5 5.00 Fog/Mist OVC005 53.6 53.6 100% 29.93 0.0
31 01:35 Calm 7.00 Overcast OVC005 55.4 55.4 100% 29.94 0.0
31 01:15 Calm 7.00 Overcast OVC006 55.4 55.4 100% 29.94 0.0
31 00:55 Calm 7.00 Overcast OVC005 55.4 55.4 100% 29.94 0.0
31 00:35 Calm 7.00 Overcast OVC005 53.6 53.6 100% 29.94 0.0
31 00:15 Calm 7.00 Overcast OVC005 53.6 53.6 100% 29.94 0.0
30 23:55 Calm 7.00 Overcast BKN006 OVC041 53.6 53.6 100% 29.94 0.0
30 23:35 Calm 7.00 Overcast OVC040 53.6 53.6 100% 29.94 0.0
30 23:15 Calm 8.00 Mostly Cloudy FEW016 BKN040 53.6 53.6 100% 29.94 0.0
30 22:55 SW 3 8.00 Mostly Cloudy BKN042 55.4 53.6 94% 29.94 0.0
30 22:35 Calm 9.00 Overcast OVC041 55.4 53.6 94% 29.94 0.0
30 22:15 Calm 9.00 Overcast OVC042 55.4 53.6 94% 29.94 0.0
30 21:55 SW 3 8.00 Overcast OVC040 55.4 53.6 94% 29.95 0.0
30 21:35 SW 3 10.00 Overcast OVC039 57.2 53.6 88% 29.94 0.0
30 21:15 SW 3 10.00 Overcast OVC041 57.2 55.4 94% 29.94 0.0
30 20:55 SW 5 10.00 Overcast OVC041 59 55.4 88% 29.93 0.0
30 20:35 W 7 10.00 Overcast OVC042 59 55.4 88% 29.92 0.0
30 20:15 W 7 10.00 Overcast OVC043 60.8 55.4 83% 29.92 0.0
30 19:55 W 5 10.00 Mostly Cloudy BKN043 60.8 55.4 83% 29.91 0.0
30 19:35 SW 5 10.00 Fair CLR 62.6 55.4 77% 29.91 0.0
30 19:15 W 9 10.00 Fair CLR 64.4 55.4 73% 29.91 0.0
30 18:55 W 8 10.00 Fair CLR 66.2 53.6 64% 29.91 0.0
30 18:35 W 9 10.00 Fair CLR 68 53.6 60% 29.91 0.0
30 18:15 W 9 10.00 Fair CLR 68 53.6 60% 29.9 0.0
30 17:55 W 10 10.00 Fair CLR 69.8 53.6 57% 29.9 0.0
30 17:35 W 9 10.00 Fair CLR 71.6 53.6 53% 29.9 0.0
30 17:15 W 13 10.00 Fair CLR 73.4 53.6 50% 29.9 0.0
30 16:55 W 12 10.00 Fair CLR 75.2 55.4 50% 78 29.89 0.0
30 16:35 W 12 10.00 Fair CLR 75.2 55.4 50% 78 29.89 0.0
30 16:15 W 10 10.00 Fair CLR 75.2 55.4 50% 78 29.9 0.0
Date Time (pdt) Wind (mph) Vis. (mi.) Weather Sky Cond. Air Dwpt Max. Min. Relative Humidity Wind Chill (°F) Heat Index (°F) altimeter (in) sea level (mb) 1 hr 3 hr 6 hr
6 hour
Temperature (ºF) Pressure Precipitation (in)